CST,Max TemperatureF,Mean TemperatureF,Min TemperatureF,Max Dew PointF,MeanDew PointF,Min DewpointF,Max Humidity, Mean Humidity, Min Humidity, Max Sea Level PressureIn, Mean Sea Level PressureIn, Min Sea Level PressureIn, Max VisibilityMiles, Mean VisibilityMiles, Min VisibilityMiles, Max Wind SpeedMPH, Mean Wind SpeedMPH, Max Gust SpeedMPH,PrecipitationIn, CloudCover, Events, WindDirDegrees
2012-1-1,45,38,31,38,25,8,100,63,26,30.53,30.22,29.89,10,10,6,29,18,36,0.04,2,Rain,302
2012-1-2,36,28,19,13,6,0,56,41,23,30.61,30.56,30.53,10,10,10,28,13,32,0.00,0,,315
2012-1-3,46,29,12,21,13,4,80,51,25,30.56,30.31,30.08,10,10,10,22,8,28,0.00,0,,200
2012-1-4,51,41,31,30,25,20,74,56,35,30.26,30.18,30.06,10,10,10,15,11,22,0.00,0,,267
2012-1-5,63,47,31,32,29,22,80,53,30,30.17,30.02,29.85,10,10,10,16,11,,0.00,0,,216
2012-1-6,63,52,42,33,30,25,66,48,29,30.01,29.85,29.75,10,10,10,17,14,26,0.00,0,,256
2012-1-7,49,39,29,27,25,20,80,58,31,30.24,30.16,30.02,10,9,3,8,6,,0.00,2,,15
2012-1-8,41,34,26,31,28,24,99,84,67,30.34,30.29,30.24,10,9,3,12,3,,0.00,5,,38
2012-1-9,50,34,19,33,24,19,99,74,35,30.31,30.23,30.11,10,10,8,8,3,,0.00,0,,241
2012-1-10,55,38,22,32,25,22,99,66,27,30.12,29.97,29.76,10,10,3,12,5,,0.00,0,,186
2012-1-11,57,40,22,34,26,21,100,74,34,29.90,29.74,29.60,10,8,2,33,9,39,0.00,4,Snow,313
2012-1-12,23,19,15,22,11,3,100,73,54,30.04,29.94,29.86,10,8,2,25,17,34,0.01,8,Snow,309
2012-1-13,29,20,10,15,7,4,80,63,35,30.18,30.11,30.04,10,10,10,17,11,22,0.00,1,Snow,263
2012-1-14,39,31,23,22,19,15,86,65,47,30.28,30.12,29.90,10,10,10,21,10,30,0.00,1,,242
2012-1-15,58,41,24,30,27,21,90,59,32,30.26,30.07,29.88,10,10,10,23,12,32,0.00,0,,178
2012-1-16,67,54,41,51,42,30,100,69,41,29.85,29.72,29.63,10,10,8,26,15,38,0.13,4,Rain-Thunderstorm,227
2012-1-17,41,28,15,41,23,10,100,80,52,30.43,30.08,29.67,10,10,9,24,14,30,0.00,5,Rain-Thunderstorm,321
2012-1-18,39,24,10,20,14,8,95,67,36,30.43,30.17,29.92,10,10,10,20,7,28,0.00,1,,201
2012-1-19,33,24,16,22,15,8,78,63,48,30.12,30.02,29.89,10,10,10,17,10,23,0.00,2,,40
2012-1-20,28,21,14,25,16,8,93,76,62,30.16,29.98,29.85,10,10,3,17,10,22,0.00,6,,44
2012-1-21,28,22,15,25,15,8,95,76,67,30.24,30.11,29.88,10,10,10,14,10,17,0.00,7,,72
2012-1-22,56,42,27,50,40,26,100,96,67,29.84,29.59,29.37,10,7,2,24,14,30,0.01,6,Rain-Thunderstorm,178
2012-1-23,46,35,23,37,29,23,99,74,47,30.10,29.86,29.55,10,10,10,23,15,33,0.00,5,,282
2012-1-24,47,34,20,31,27,21,99,77,51,30.29,30.22,30.12,10,10,10,10,3,,0.00,3,,91
2012-1-25,47,41,35,41,35,29,100,85,67,30.21,30.08,29.94,10,10,8,9,6,,0.00,7,,89
2012-1-26,53,42,32,39,34,25,100,90,34,29.96,29.91,29.79,10,5,0,17,5,23,0.00,6,Fog,318
2012-1-27,41,32,23,37,33,23,100,93,72,30.18,30.02,29.89,10,9,5,15,6,22,0.13,5,Rain-Snow,355
2012-1-28,44,34,23,29,20,13,89,58,31,30.38,30.30,30.19,10,10,10,21,11,33,0.00,0,,259
2012-1-29,49,39,29,28,18,13,71,46,27,30.31,30.23,30.12,10,10,10,14,10,,0.00,1,,216
2012-1-30,63,49,35,44,35,28,81,59,37,30.10,29.98,29.88,10,10,10,25,15,32,0.00,0,,205
2012-1-31,65,54,39,54,47,30,88,72,51,30.06,29.91,29.85,10,9,6,20,14,23,0.00,4,,232